Time;durP1;ratioP1;P1;durP2;ratioP2;P2;SDS_P1;SDS_P2;PMS_P1;PMS_P2;Temp;Humidity;BMP_temperature;BMP_pressure;BME280_temperature;BME280_humidity;BME280_pressure;Samples;Min_cycle;Max_cycle;Signal;HPM_P1;HPM_P2
2022/10/30 00:01:23;;;;;;;7.70;4.78;;;17.40;69.70;;;;;;5050803;28;20053;-53
2022/10/30 00:03:56;;;;;;;9.23;4.75;;;17.30;69.70;;;;;;5037858;28;20500;-51
2022/10/30 00:06:25;;;;;;;6.85;4.50;;;17.30;69.60;;;;;;5042889;28;20107;-51
2022/10/30 00:08:52;;;;;;;7.15;5.15;;;17.30;69.60;;;;;;5046146;28;20532;-52
2022/10/30 00:11:23;;;;;;;6.50;4.53;;;17.20;69.40;;;;;;5051543;28;20051;-50
2022/10/30 00:13:59;;;;;;;8.90;4.75;;;17.20;69.40;;;;;;5026561;28;20075;-53
2022/10/30 00:16:26;;;;;;;6.53;4.75;;;17.20;69.40;;;;;;5034577;28;20060;-50
2022/10/30 00:18:54;;;;;;;5.47;4.35;;;17.10;69.30;;;;;;5038003;28;20056;-50
2022/10/30 00:21:21;;;;;;;8.55;5.25;;;17.10;69.30;;;;;;5051150;28;20139;-50
2022/10/30 00:23:49;;;;;;;7.28;4.82;;;17.10;69.20;;;;;;5032752;28;20049;-52
2022/10/30 00:26:20;;;;;;;8.32;4.72;;;17.00;69.30;;;;;;5041284;28;20120;-54
2022/10/30 00:28:55;;;;;;;8.63;5.57;;;17.10;69.40;;;;;;5046048;28;20096;-53
2022/10/30 00:31:22;;;;;;;7.22;5.00;;;17.00;69.60;;;;;;5030081;28;20045;-50
2022/10/30 00:33:53;;;;;;;7.93;4.20;;;17.00;69.50;;;;;;5023676;28;20049;-53
2022/10/30 00:36:30;;;;;;;9.65;4.35;;;16.90;69.50;;;;;;5040482;28;20055;-50
2022/10/30 00:39:00;;;;;;;7.47;4.28;;;17.00;69.80;;;;;;5045271;28;20727;-52
2022/10/30 00:41:26;;;;;;;7.40;4.95;;;16.90;69.50;;;;;;5043999;28;20049;-54
2022/10/30 00:43:54;;;;;;;7.30;4.72;;;16.90;69.60;;;;;;5033560;28;20041;-50
2022/10/30 00:46:31;;;;;;;9.90;4.68;;;16.90;69.60;;;;;;5032635;28;20056;-51
2022/10/30 00:49:07;;;;;;;7.68;4.45;;;16.90;69.50;;;;;;5040916;28;20136;-50
2022/10/30 00:51:37;;;;;;;7.75;4.38;;;16.90;69.50;;;;;;5042482;28;20037;-50
2022/10/30 00:54:09;;;;;;;7.32;4.75;;;16.80;69.50;;;;;;5036714;28;20050;-52
2022/10/30 00:56:37;;;;;;;10.77;5.10;;;16.80;69.50;;;;;;5031829;28;20053;-50
2022/10/30 00:59:08;;;;;;;8.60;5.60;;;16.80;69.40;;;;;;5029390;28;20586;-50
2022/10/30 01:01:41;;;;;;;5.45;4.68;;;16.80;69.60;;;;;;5027766;28;20048;-50
2022/10/30 01:04:13;;;;;;;15.70;5.72;;;16.70;69.60;;;;;;5040616;28;20049;-54
2022/10/30 01:06:47;;;;;;;6.43;4.45;;;16.70;69.60;;;;;;5043137;28;20076;-53
2022/10/30 01:09:16;;;;;;;8.18;4.40;;;16.60;69.60;;;;;;5049425;28;20041;-50
2022/10/30 01:11:45;;;;;;;6.00;4.68;;;16.60;70.20;;;;;;5035683;28;20112;-52
2022/10/30 01:14:20;;;;;;;7.72;4.22;;;16.60;69.50;;;;;;5036623;28;20502;-53
2022/10/30 01:16:56;;;;;;;7.10;4.60;;;16.50;69.30;;;;;;5036069;28;20061;-52
2022/10/30 01:19:33;;;;;;;11.32;4.75;;;16.50;69.40;;;;;;5028977;28;20100;-50
2022/10/30 01:22:36;;;;;;;7.80;4.43;;;16.50;69.70;;;;;;5029277;28;20056;-51
2022/10/30 01:25:14;;;;;;;7.25;4.32;;;16.40;69.40;;;;;;5036675;28;20096;-51
2022/10/30 01:28:06;;;;;;;6.70;3.67;;;16.40;69.40;;;;;;5029029;28;20060;-50
2022/10/30 01:30:35;;;;;;;5.80;4.55;;;16.30;69.20;;;;;;5032236;28;20444;-51
2022/10/30 01:33:22;;;;;;;6.82;4.43;;;16.30;69.10;;;;;;5036977;28;20049;-52
2022/10/30 01:35:56;;;;;;;8.35;5.18;;;16.30;69.20;;;;;;5010680;28;20049;-53
2022/10/30 01:38:30;;;;;;;7.13;5.03;;;16.20;69.30;;;;;;5030473;28;20054;-53
2022/10/30 01:41:00;;;;;;;7.13;4.78;;;16.20;69.60;;;;;;5036948;28;20502;-51
2022/10/30 01:43:29;;;;;;;7.63;5.35;;;16.10;69.30;;;;;;5026492;28;20077;-51
2022/10/30 01:46:08;;;;;;;6.97;4.50;;;16.10;69.40;;;;;;5029642;28;20464;-54
2022/10/30 01:49:12;;;;;;;6.95;5.00;;;16.10;69.30;;;;;;5026992;28;20136;-50
2022/10/30 01:52:06;;;;;;;8.23;4.63;;;16.10;69.50;;;;;;4955771;28;20085;-50
2022/10/30 01:54:54;;;;;;;5.75;4.38;;;16.00;69.50;;;;;;5008816;28;20070;-55
2022/10/30 01:57:46;;;;;;;9.05;4.72;;;16.00;69.20;;;;;;5019613;28;20049;-51
2022/10/30 02:00:19;;;;;;;6.78;4.10;;;15.90;69.20;;;;;;5036755;28;20041;-52
2022/10/30 02:02:50;;;;;;;9.57;4.88;;;15.90;69.20;;;;;;5044616;28;20118;-52
2022/10/30 02:05:40;;;;;;;7.10;4.50;;;15.90;69.20;;;;;;5048892;28;20452;-49
2022/10/30 02:08:06;;;;;;;9.80;5.65;;;15.80;69.00;;;;;;5032509;28;20120;-52
2022/10/30 02:10:37;;;;;;;6.47;5.03;;;15.80;69.00;;;;;;5028749;28;20080;-54
2022/10/30 02:13:09;;;;;;;8.43;4.95;;;15.80;69.10;;;;;;5046382;28;20048;-51
2022/10/30 02:15:46;;;;;;;8.32;4.60;;;15.70;69.10;;;;;;5026028;28;20041;-53
2022/10/30 02:18:15;;;;;;;9.10;5.68;;;15.70;69.10;;;;;;5021708;28;20037;-51
2022/10/30 02:20:43;;;;;;;7.93;4.97;;;15.70;69.10;;;;;;5035895;28;20061;-50
2022/10/30 02:23:17;;;;;;;6.65;5.10;;;15.60;69.00;;;;;;5025864;28;20053;-51
2022/10/30 02:25:45;;;;;;;6.40;4.20;;;15.60;69.00;;;;;;5033627;28;20077;-53
2022/10/30 02:28:11;;;;;;;6.00;4.90;;;15.60;69.10;;;;;;5043525;28;20052;-51
2022/10/30 02:30:42;;;;;;;8.60;5.70;;;15.50;69.10;;;;;;5040490;28;20049;-50
2022/10/30 02:33:23;;;;;;;7.43;4.38;;;15.50;69.10;;;;;;5048717;28;20040;-52
2022/10/30 02:35:50;;;;;;;13.50;6.35;;;15.50;69.80;;;;;;5024927;28;20050;-51
2022/10/30 02:38:19;;;;;;;8.70;4.80;;;15.50;69.10;;;;;;5043838;28;20091;-53
2022/10/30 02:40:48;;;;;;;8.90;4.70;;;15.50;69.30;;;;;;5028076;28;20049;-52
2022/10/30 02:43:14;;;;;;;6.65;4.55;;;15.40;69.20;;;;;;5023363;28;20041;-50
2022/10/30 02:45:42;;;;;;;8.43;5.95;;;15.40;69.20;;;;;;5034611;28;20051;-52
2022/10/30 02:48:08;;;;;;;9.00;5.28;;;15.40;69.20;;;;;;5037624;28;20144;-51
2022/10/30 02:50:40;;;;;;;8.52;4.45;;;15.40;69.20;;;;;;5047171;28;20041;-52
2022/10/30 02:53:07;;;;;;;9.25;5.07;;;15.40;69.30;;;;;;5035515;28;20034;-54
2022/10/30 02:55:34;;;;;;;7.47;4.22;;;15.30;69.20;;;;;;5034695;28;20041;-51
2022/10/30 02:58:01;;;;;;;9.15;4.25;;;15.30;69.00;;;;;;5040331;28;20068;-54
2022/10/30 03:00:29;;;;;;;9.65;4.38;;;15.30;69.10;;;;;;5047441;28;20041;-54
2022/10/30 03:02:56;;;;;;;6.47;3.97;;;15.30;69.20;;;;;;5022974;28;20132;-54
2022/10/30 03:05:24;;;;;;;7.85;5.15;;;15.20;69.20;;;;;;5033088;28;20075;-54
2022/10/30 03:07:54;;;;;;;7.82;4.43;;;15.20;69.20;;;;;;5040902;28;20072;-54
2022/10/30 03:10:25;;;;;;;;;;;15.20;69.30;;;;;;5047397;28;20051;-54
2022/10/30 03:12:52;;;;;;;5.68;3.60;;;15.20;69.30;;;;;;5027574;28;20024;-54
2022/10/30 03:15:26;;;;;;;9.48;3.90;;;15.20;69.10;;;;;;5052529;28;20048;-53
2022/10/30 03:17:54;;;;;;;5.53;4.07;;;15.20;69.20;;;;;;5038257;28;20049;-53
2022/10/30 03:20:22;;;;;;;6.93;4.25;;;15.20;69.20;;;;;;5024505;28;20403;-53
2022/10/30 03:22:50;;;;;;;8.93;4.32;;;15.20;69.20;;;;;;5034130;28;20052;-53
2022/10/30 03:25:22;;;;;;;5.30;3.88;;;15.10;69.30;;;;;;5039220;28;20059;-54
2022/10/30 03:27:55;;;;;;;7.95;4.72;;;15.10;69.30;;;;;;5034199;28;20052;-54
2022/10/30 03:30:32;;;;;;;5.78;4.22;;;15.10;69.30;;;;;;5024064;28;20046;-54
2022/10/30 03:33:02;;;;;;;5.70;3.83;;;15.10;69.40;;;;;;5037987;28;20044;-54
2022/10/30 03:35:29;;;;;;;8.10;4.07;;;15.10;69.30;;;;;;5038559;28;20072;-53
2022/10/30 03:38:00;;;;;;;5.88;3.88;;;15.10;69.30;;;;;;5045846;28;20083;-54
2022/10/30 03:40:27;;;;;;;7.53;4.10;;;15.10;69.30;;;;;;5017680;28;20073;-54
2022/10/30 03:42:59;;;;;;;5.60;4.65;;;15.00;69.30;;;;;;5041836;28;20409;-54
2022/10/30 03:45:34;;;;;;;7.25;4.75;;;15.00;69.20;;;;;;5022615;28;20041;-54
2022/10/30 03:48:07;;;;;;;5.88;4.60;;;15.00;69.30;;;;;;5037071;28;20045;-54
2022/10/30 03:50:34;;;;;;;7.45;4.18;;;15.00;69.30;;;;;;5008280;28;20073;-54
2022/10/30 03:53:10;;;;;;;6.20;4.13;;;15.00;69.30;;;;;;5028138;28;20041;-54
2022/10/30 03:55:39;;;;;;;8.60;4.60;;;14.90;69.30;;;;;;5029218;28;20079;-54
2022/10/30 03:58:07;;;;;;;5.97;4.25;;;14.90;69.20;;;;;;5036857;28;20057;-52
2022/10/30 04:00:35;;;;;;;5.72;4.40;;;14.90;69.30;;;;;;5032165;28;20458;-54
2022/10/30 04:03:06;;;;;;;7.57;4.40;;;14.90;69.30;;;;;;5020102;28;20052;-54
2022/10/30 04:05:38;;;;;;;7.68;4.10;;;14.90;69.40;;;;;;5005617;28;20099;-54
2022/10/30 04:08:11;;;;;;;5.68;4.40;;;14.90;69.20;;;;;;4992794;28;20045;-54
2022/10/30 04:10:42;;;;;;;10.10;4.57;;;14.90;69.50;;;;;;5033272;28;20041;-52
2022/10/30 04:13:16;;;;;;;6.63;4.93;;;14.90;69.30;;;;;;5039746;28;20120;-54
2022/10/30 04:15:50;;;;;;;6.47;5.07;;;14.80;69.20;;;;;;5039973;28;20038;-53
2022/10/30 04:18:26;;;;;;;8.98;4.35;;;14.80;69.30;;;;;;5020770;28;20069;-54
2022/10/30 04:20:59;;;;;;;6.13;4.15;;;14.80;69.20;;;;;;5035419;28;20468;-53
2022/10/30 04:23:28;;;;;;;9.98;5.18;;;14.80;69.30;;;;;;5041003;28;20048;-53
2022/10/30 04:25:55;;;;;;;12.10;4.78;;;14.80;69.20;;;;;;5050686;28;20090;-54
2022/10/30 04:28:22;;;;;;;6.53;4.10;;;14.80;69.20;;;;;;5036632;28;20173;-54
2022/10/30 04:30:51;;;;;;;5.85;4.07;;;14.80;69.20;;;;;;5037440;28;20595;-52
2022/10/30 04:33:18;;;;;;;4.63;3.97;;;14.80;69.20;;;;;;5042720;28;20174;-54
2022/10/30 04:35:45;;;;;;;7.15;4.40;;;14.70;69.20;;;;;;5051594;28;20552;-54
2022/10/30 04:38:17;;;;;;;5.28;4.10;;;14.80;69.30;;;;;;5038133;28;20131;-53
2022/10/30 04:40:51;;;;;;;6.90;4.65;;;14.80;69.40;;;;;;5041676;28;20049;-54
2022/10/30 04:43:23;;;;;;;7.80;4.63;;;14.70;69.50;;;;;;5046898;28;20640;-53
2022/10/30 04:45:53;;;;;;;6.53;4.15;;;14.80;69.60;;;;;;5051503;28;20041;-54
2022/10/30 04:48:26;;;;;;;8.25;4.60;;;14.70;69.50;;;;;;5035785;28;20046;-54
2022/10/30 04:50:57;;;;;;;10.05;5.57;;;14.70;69.60;;;;;;5041737;28;20065;-54
2022/10/30 04:53:29;;;;;;;6.00;4.35;;;14.70;69.60;;;;;;5050690;28;20082;-54
2022/10/30 04:56:05;;;;;;;6.78;4.72;;;14.70;69.60;;;;;;5025406;28;20050;-54
2022/10/30 04:58:32;;;;;;;5.78;4.70;;;14.70;69.60;;;;;;5045524;28;20092;-54
2022/10/30 05:01:04;;;;;;;7.50;5.00;;;14.70;69.60;;;;;;5045579;28;20447;-54
2022/10/30 05:03:32;;;;;;;7.38;4.38;;;14.70;69.60;;;;;;5050943;28;20049;-54
2022/10/30 05:06:06;;;;;;;8.02;5.25;;;14.70;69.50;;;;;;5033024;28;20135;-54
2022/10/30 05:08:35;;;;;;;7.50;4.78;;;14.70;69.60;;;;;;5026213;28;20048;-54
2022/10/30 05:11:11;;;;;;;7.47;4.35;;;14.70;69.50;;;;;;5050078;28;20041;-54
2022/10/30 05:13:41;;;;;;;6.35;4.75;;;14.60;69.60;;;;;;5034317;28;20049;-54
2022/10/30 05:16:11;;;;;;;5.13;4.53;;;14.60;69.70;;;;;;5031442;28;20141;-54
2022/10/30 05:18:40;;;;;;;6.95;4.57;;;14.60;69.70;;;;;;5050193;28;20531;-54
2022/10/30 05:21:08;;;;;;;5.93;4.40;;;14.60;69.70;;;;;;5048081;28;20052;-54
2022/10/30 05:23:35;;;;;;;7.70;5.20;;;14.60;69.80;;;;;;5039362;28;20049;-54
2022/10/30 05:26:05;;;;;;;9.15;5.05;;;14.60;69.70;;;;;;5041123;28;20060;-54
2022/10/30 05:28:32;;;;;;;6.15;4.57;;;14.70;69.80;;;;;;5050658;28;20041;-53
2022/10/30 05:31:03;;;;;;;6.43;4.57;;;14.60;69.70;;;;;;5035500;28;20061;-54
2022/10/30 05:33:58;;;;;;;7.60;4.97;;;14.60;69.70;;;;;;5026779;28;20049;-54
2022/10/30 05:36:39;;;;;;;8.13;4.30;;;14.60;69.60;;;;;;5039887;28;20042;-53
2022/10/30 05:39:11;;;;;;;9.43;4.57;;;14.60;69.70;;;;;;5045929;28;20128;-54
2022/10/30 05:41:45;;;;;;;8.57;4.72;;;14.60;69.60;;;;;;5038948;28;20065;-54
2022/10/30 05:44:18;;;;;;;6.38;4.78;;;14.60;69.60;;;;;;5031518;28;20708;-54
2022/10/30 05:47:05;;;;;;;7.28;4.80;;;14.60;69.70;;;;;;5041432;28;20436;-54
2022/10/30 05:49:34;;;;;;;8.35;4.68;;;14.50;69.70;;;;;;5033825;28;20043;-54
2022/10/30 05:52:07;;;;;;;6.18;4.78;;;14.60;69.70;;;;;;5042582;28;20052;-55
2022/10/30 05:54:36;;;;;;;8.10;4.93;;;14.50;69.70;;;;;;5045379;28;20046;-54
2022/10/30 05:57:17;;;;;;;8.07;4.43;;;14.50;69.70;;;;;;5030003;28;20144;-54
2022/10/30 05:59:44;;;;;;;6.70;4.93;;;14.50;69.70;;;;;;5026688;28;20749;-54
2022/10/30 06:02:10;;;;;;;14.88;5.20;;;14.50;69.80;;;;;;5033388;28;20049;-50
2022/10/30 06:04:37;;;;;;;6.68;4.90;;;14.50;69.80;;;;;;5040898;28;20041;-52
2022/10/30 06:07:10;;;;;;;8.02;4.80;;;14.50;69.80;;;;;;5049751;28;20069;-53
2022/10/30 06:09:39;;;;;;;7.55;5.03;;;14.40;69.60;;;;;;5040890;28;20432;-53
2022/10/30 06:12:20;;;;;;;11.93;5.30;;;14.40;69.70;;;;;;5035982;28;20041;-53
2022/10/30 06:15:01;;;;;;;5.03;4.53;;;14.40;69.60;;;;;;5041483;28;20525;-53
2022/10/30 06:17:31;;;;;;;8.52;5.45;;;14.40;69.50;;;;;;5030735;28;20514;-54
2022/10/30 06:20:12;;;;;;;10.48;5.43;;;14.40;69.60;;;;;;5023267;28;20045;-54
2022/10/30 06:22:56;;;;;;;5.88;4.93;;;14.30;69.50;;;;;;5035290;28;20049;-53
2022/10/30 06:25:30;;;;;;;6.85;5.38;;;14.30;69.60;;;;;;5030067;28;20141;-52
2022/10/30 06:28:13;;;;;;;5.45;4.47;;;14.30;69.50;;;;;;5028126;28;20038;-54
2022/10/30 06:30:41;;;;;;;10.20;5.15;;;14.20;69.50;;;;;;5047101;28;20083;-53
2022/10/30 06:33:09;;;;;;;7.60;4.93;;;14.30;69.60;;;;;;5037745;28;20608;-54
2022/10/30 06:35:41;;;;;;;9.90;6.05;;;14.20;69.50;;;;;;5008741;28;20065;-54
2022/10/30 06:38:11;;;;;;;7.22;5.38;;;14.20;69.60;;;;;;5027249;28;20062;-54
2022/10/30 06:40:42;;;;;;;6.38;4.95;;;14.20;69.60;;;;;;5025351;28;20441;-54
2022/10/30 06:43:38;;;;;;;7.03;5.32;;;14.20;69.60;;;;;;5017015;28;20103;-54
2022/10/30 06:46:17;;;;;;;8.25;5.70;;;14.20;69.60;;;;;;5037862;28;20054;-54
2022/10/30 06:48:44;;;;;;;8.32;5.65;;;14.20;69.70;;;;;;5029275;28;20038;-53
2022/10/30 06:51:14;;;;;;;9.18;5.57;;;14.10;69.70;;;;;;5034806;28;20053;-53
2022/10/30 06:53:41;;;;;;;9.57;5.13;;;14.10;69.80;;;;;;5032703;28;20045;-55
2022/10/30 06:56:28;;;;;;;7.47;5.40;;;14.10;69.80;;;;;;5027691;28;20038;-53
2022/10/30 06:59:18;;;;;;;7.68;5.32;;;14.10;69.80;;;;;;5020865;28;20069;-53
2022/10/30 07:02:18;;;;;;;6.05;4.72;;;14.10;69.80;;;;;;5029436;28;20581;-52
2022/10/30 07:04:52;;;;;;;6.63;4.97;;;14.10;69.80;;;;;;5024003;28;20072;-53
2022/10/30 07:07:21;;;;;;;5.63;4.78;;;14.10;70.00;;;;;;5033199;28;20049;-52
2022/10/30 07:09:48;;;;;;;8.02;5.65;;;14.10;70.20;;;;;;5041453;28;20076;-50
2022/10/30 07:12:21;;;;;;;8.57;4.90;;;14.10;70.20;;;;;;5045453;28;20456;-49
2022/10/30 07:14:58;;;;;;;6.18;5.10;;;14.10;70.20;;;;;;5040091;28;20068;-49
2022/10/30 07:17:39;;;;;;;9.00;5.27;;;14.10;70.40;;;;;;5023284;28;20057;-52
2022/10/30 07:20:19;;;;;;;7.28;5.20;;;14.20;70.50;;;;;;5016611;28;20836;-51
2022/10/30 07:22:45;;;;;;;6.47;5.18;;;14.20;70.60;;;;;;5021206;28;20042;-53
2022/10/30 07:25:12;;;;;;;9.80;5.43;;;14.20;70.70;;;;;;5024064;28;20049;-51
2022/10/30 07:27:50;;;;;;;10.95;5.03;;;14.20;70.80;;;;;;5040660;28;20410;-49
2022/10/30 07:30:46;;;;;;;6.15;5.28;;;14.20;70.90;;;;;;5035577;28;20536;-49
2022/10/30 07:33:33;;;;;;;8.15;5.32;;;14.30;71.00;;;;;;5028362;28;20056;-48
2022/10/30 07:36:06;;;;;;;6.38;5.78;;;14.30;71.00;;;;;;5032251;28;20132;-51
2022/10/30 07:38:46;;;;;;;6.72;5.20;;;14.30;71.00;;;;;;5040162;28;20050;-52
2022/10/30 07:41:24;;;;;;;6.25;5.32;;;14.40;71.20;;;;;;5028777;28;20054;-53
2022/10/30 07:44:11;;;;;;;7.38;6.07;;;14.40;71.20;;;;;;5022277;28;20046;-49
2022/10/30 07:46:58;;;;;;;8.10;5.95;;;14.40;71.40;;;;;;5029612;28;20046;-53
2022/10/30 07:49:45;;;;;;;9.38;6.07;;;14.50;72.10;;;;;;5033321;28;20063;-49
2022/10/30 07:52:13;;;;;;;11.57;6.65;;;14.50;72.30;;;;;;5034682;28;20133;-49
2022/10/30 07:54:45;;;;;;;9.47;7.40;;;14.60;72.90;;;;;;5021574;28;20516;-52
2022/10/30 07:57:34;;;;;;;9.02;6.50;;;14.60;73.20;;;;;;5030694;28;20457;-51
2022/10/30 08:00:24;;;;;;;10.93;7.38;;;14.70;73.80;;;;;;4999968;28;20081;-50
2022/10/30 08:03:14;;;;;;;9.68;6.78;;;14.80;74.30;;;;;;5020489;28;20057;-48
2022/10/30 08:05:57;;;;;;;12.77;7.47;;;14.90;73.80;;;;;;5027511;28;20532;-52
2022/10/30 08:08:32;;;;;;;10.90;6.65;;;15.00;73.90;;;;;;5043959;28;20045;-51
2022/10/30 08:11:22;;;;;;;15.10;7.43;;;15.10;74.00;;;;;;5043374;28;20046;-53
2022/10/30 08:13:49;;;;;;;11.18;6.55;;;15.20;74.10;;;;;;5044036;28;20056;-53
2022/10/30 08:16:17;;;;;;;9.93;6.93;;;15.20;74.10;;;;;;5036173;28;20060;-49
2022/10/30 08:18:44;;;;;;;13.75;6.90;;;15.40;74.10;;;;;;5047713;28;20057;-48
2022/10/30 08:21:10;;;;;;;7.40;6.43;;;15.50;74.20;;;;;;5030098;28;20041;-50
2022/10/30 08:23:47;;;;;;;8.23;6.50;;;15.50;74.30;;;;;;5029394;28;20042;-49
2022/10/30 08:26:16;;;;;;;9.70;7.10;;;15.60;74.10;;;;;;5041052;28;20441;-49
2022/10/30 08:28:42;;;;;;;11.73;6.10;;;15.70;74.20;;;;;;5032145;28;20140;-50
2022/10/30 08:31:10;;;;;;;9.52;5.60;;;15.80;74.00;;;;;;5026446;28;20068;-48
2022/10/30 08:34:12;;;;;;;8.23;5.43;;;15.90;74.00;;;;;;5019590;28;20049;-49
2022/10/30 08:36:48;;;;;;;;;;;16.00;73.80;;;;;;5028078;28;20060;-52
2022/10/30 08:39:16;;;;;;;8.45;6.22;;;16.20;74.30;;;;;;5028053;28;20767;-48
2022/10/30 08:41:59;;;;;;;10.10;6.68;;;16.20;73.40;;;;;;5035040;28;20501;-49
2022/10/30 08:44:30;;;;;;;10.43;6.30;;;16.30;73.60;;;;;;5034963;28;20045;-48
2022/10/30 08:47:15;;;;;;;9.13;6.00;;;16.30;73.50;;;;;;5066565;23;20041;-46
2022/10/30 08:49:44;;;;;;;10.07;5.47;;;16.40;73.50;;;;;;5043301;28;20142;-45
2022/10/30 08:52:11;;;;;;;11.50;6.10;;;16.50;73.60;;;;;;5035760;28;20471;-45
2022/10/30 08:54:38;;;;;;;12.98;6.72;;;16.60;73.70;;;;;;5051952;28;20722;-47
2022/10/30 08:57:05;;;;;;;8.57;6.78;;;16.70;73.60;;;;;;5029051;28;20038;-46
2022/10/30 08:59:34;;;;;;;12.00;6.25;;;16.80;73.60;;;;;;5004574;28;20037;-45
2022/10/30 09:02:01;;;;;;;10.25;6.57;;;16.90;73.60;;;;;;5025745;28;20087;-45
2022/10/30 09:04:46;;;;;;;10.57;6.78;;;16.90;73.40;;;;;;5013403;28;20103;-46
2022/10/30 09:07:39;;;;;;;9.98;6.70;;;17.00;73.00;;;;;;5011443;28;20056;-50
2022/10/30 09:10:24;;;;;;;8.45;6.10;;;17.10;72.90;;;;;;5020910;28;20076;-52
2022/10/30 09:13:01;;;;;;;14.10;7.45;;;17.20;72.80;;;;;;5024585;28;20379;-47
2022/10/30 09:15:28;;;;;;;11.77;6.55;;;17.30;73.40;;;;;;5028937;28;20046;-48
2022/10/30 09:18:00;;;;;;;11.40;6.38;;;17.30;72.60;;;;;;5009324;28;20056;-50
2022/10/30 09:20:30;;;;;;;11.85;6.43;;;17.40;72.50;;;;;;5019764;28;20084;-49
2022/10/30 09:22:57;;;;;;;9.30;6.53;;;17.50;72.40;;;;;;5019500;28;20041;-48
2022/10/30 09:25:25;;;;;;;10.73;6.60;;;17.50;72.20;;;;;;5019429;28;20473;-49
2022/10/30 09:28:05;;;;;;;11.77;8.00;;;17.60;72.20;;;;;;5022748;28;20046;-49
2022/10/30 09:30:51;;;;;;;10.65;6.60;;;17.70;72.00;;;;;;5022985;28;20045;-49
2022/10/30 09:33:19;;;;;;;8.32;6.68;;;17.80;71.90;;;;;;5023146;28;20137;-50
2022/10/30 09:36:15;;;;;;;13.70;7.93;;;17.80;71.80;;;;;;4993288;28;20046;-51
2022/10/30 09:38:46;;;;;;;10.98;6.95;;;17.90;71.70;;;;;;5021538;28;20045;-52
2022/10/30 09:41:59;;;;;;;11.65;7.25;;;17.90;71.70;;;;;;5026829;28;20041;-48
2022/10/30 09:44:32;;;;;;;;;;;18.00;71.90;;;;;;5031558;28;20100;-48
2022/10/30 09:47:19;;;;;;;14.45;6.45;;;18.10;71.80;;;;;;5002181;28;19960;-48
2022/10/30 09:49:58;;;;;;;14.25;7.30;;;18.10;71.50;;;;;;5014260;28;20050;-50
2022/10/30 09:52:29;;;;;;;13.95;6.68;;;18.10;71.40;;;;;;5017118;28;20061;-49
2022/10/30 09:55:15;;;;;;;16.40;6.60;;;18.20;71.60;;;;;;5018793;28;20780;-52
2022/10/30 09:57:55;;;;;;;11.23;6.10;;;18.20;72.10;;;;;;5014449;28;20100;-51
2022/10/30 10:00:32;;;;;;;12.38;6.55;;;18.20;71.80;;;;;;5018920;28;20061;-52
2022/10/30 10:03:37;;;;;;;11.05;6.68;;;18.30;71.80;;;;;;5006542;28;20040;-50
2022/10/30 10:06:42;;;;;;;25.67;7.05;;;18.40;71.80;;;;;;5022417;28;20064;-51
2022/10/30 10:09:28;;;;;;;10.40;6.40;;;18.40;71.50;;;;;;5023318;28;20498;-48
2022/10/30 10:12:28;;;;;;;12.02;6.05;;;18.40;71.50;;;;;;5013288;28;20053;-50
2022/10/30 10:14:56;;;;;;;10.40;5.97;;;18.50;71.60;;;;;;5021060;28;20077;-48
2022/10/30 10:17:30;;;;;;;9.63;6.57;;;18.50;72.10;;;;;;5019081;28;20049;-49
2022/10/30 10:19:59;;;;;;;13.52;5.90;;;18.50;71.60;;;;;;5019832;28;20074;-50
2022/10/30 10:22:39;;;;;;;11.18;5.10;;;18.60;71.60;;;;;;5016479;28;20056;-50
2022/10/30 10:25:10;;;;;;;8.88;6.10;;;18.70;71.80;;;;;;5015328;28;20046;-51
2022/10/30 10:27:58;;;;;;;7.18;4.95;;;18.70;71.60;;;;;;5024258;28;20044;-49
2022/10/30 10:30:34;;;;;;;10.23;5.25;;;18.70;71.40;;;;;;5017235;28;20046;-48
2022/10/30 10:33:26;;;;;;;9.60;5.47;;;18.80;71.50;;;;;;5007386;28;20517;-51
2022/10/30 10:36:19;;;;;;;10.52;5.43;;;18.80;71.40;;;;;;5012644;28;20043;-51
2022/10/30 10:39:03;;;;;;;13.40;5.43;;;18.90;71.30;;;;;;5017462;28;20073;-52
2022/10/30 10:41:45;;;;;;;10.88;4.70;;;19.00;71.10;;;;;;5017413;28;20401;-48
2022/10/30 10:44:27;;;;;;;9.88;5.38;;;19.00;71.00;;;;;;5025005;28;20069;-52
2022/10/30 10:47:19;;;;;;;10.25;5.55;;;19.10;70.80;;;;;;5020053;28;20050;-49
2022/10/30 10:50:19;;;;;;;7.93;4.87;;;19.20;71.50;;;;;;5017125;28;20045;-51
2022/10/30 10:53:11;;;;;;;9.85;5.90;;;19.20;70.60;;;;;;5000551;28;20053;-51
2022/10/30 10:55:38;;;;;;;8.77;4.72;;;19.30;70.60;;;;;;5022156;28;20037;-49
2022/10/30 10:58:25;;;;;;;6.85;4.43;;;19.40;70.50;;;;;;5020321;28;20122;-51
2022/10/30 11:00:55;;;;;;;12.10;4.97;;;19.40;70.40;;;;;;5018187;28;20038;-48
2022/10/30 11:03:44;;;;;;;6.60;4.43;;;19.50;70.20;;;;;;5021445;28;20045;-49
2022/10/30 11:06:26;;;;;;;8.25;4.43;;;19.60;70.20;;;;;;5020461;28;20052;-48
2022/10/30 11:09:13;;;;;;;9.63;4.20;;;19.60;69.60;;;;;;5020039;28;20125;-50
2022/10/30 11:11:40;;;;;;;7.70;4.45;;;19.70;69.50;;;;;;5021092;28;20061;-49
2022/10/30 11:14:16;;;;;;;10.15;5.43;;;19.80;69.50;;;;;;5023061;28;20065;-49
2022/10/30 11:16:48;;;;;;;8.20;4.95;;;19.80;69.20;;;;;;5018891;28;20045;-49
2022/10/30 11:19:15;;;;;;;7.88;4.25;;;19.90;69.20;;;;;;5020363;28;20645;-49
2022/10/30 11:21:46;;;;;;;7.70;4.65;;;20.00;69.20;;;;;;5018797;28;20051;-48
2022/10/30 11:24:33;;;;;;;15.20;5.05;;;20.00;69.10;;;;;;5020240;28;20494;-49
2022/10/30 11:27:21;;;;;;;9.73;5.07;;;20.10;69.20;;;;;;5018034;28;20113;-49
2022/10/30 11:29:57;;;;;;;7.20;4.05;;;20.20;69.00;;;;;;5019361;28;20038;-49
2022/10/30 11:32:32;;;;;;;8.23;4.65;;;20.30;68.80;;;;;;5022682;28;20091;-50
2022/10/30 11:35:19;;;;;;;6.90;4.10;;;20.40;68.50;;;;;;5025642;28;20041;-48
2022/10/30 11:37:49;;;;;;;9.10;3.92;;;20.40;68.70;;;;;;5019370;28;20610;-50
2022/10/30 11:40:18;;;;;;;6.57;4.60;;;20.40;68.50;;;;;;5023665;28;20045;-53
2022/10/30 11:42:49;;;;;;;8.48;4.53;;;20.50;68.50;;;;;;5034437;28;20052;-49
2022/10/30 11:45:22;;;;;;;13.80;5.30;;;20.50;68.20;;;;;;5024358;28;20129;-52
2022/10/30 11:47:56;;;;;;;9.88;4.22;;;20.60;68.10;;;;;;5017227;28;20060;-49
2022/10/30 11:50:33;;;;;;;8.05;4.85;;;20.70;67.90;;;;;;5015355;28;20096;-53
2022/10/30 11:53:10;;;;;;;7.90;4.82;;;20.70;67.80;;;;;;5028984;28;20065;-50
2022/10/30 11:55:40;;;;;;;9.00;4.32;;;20.80;67.90;;;;;;5015569;28;20129;-48
2022/10/30 11:58:10;;;;;;;8.73;4.53;;;20.90;67.30;;;;;;5021599;28;20044;-51
2022/10/30 12:00:39;;;;;;;8.52;4.20;;;20.90;67.30;;;;;;5012814;28;20391;-51
2022/10/30 12:03:35;;;;;;;12.88;5.07;;;21.00;67.00;;;;;;5013935;28;20068;-51
2022/10/30 12:06:21;;;;;;;7.18;3.95;;;21.10;66.80;;;;;;5014099;28;20548;-50
2022/10/30 12:09:03;;;;;;;8.52;4.55;;;21.20;66.60;;;;;;5024858;28;20473;-48
2022/10/30 12:11:34;;;;;;;5.88;3.58;;;21.20;66.70;;;;;;5024779;28;20133;-52
2022/10/30 12:14:01;;;;;;;9.95;4.78;;;21.30;66.70;;;;;;5034227;28;20120;-52
2022/10/30 12:16:29;;;;;;;8.32;4.55;;;21.30;66.70;;;;;;5011853;28;20050;-49
2022/10/30 12:19:14;;;;;;;8.02;3.88;;;21.40;66.60;;;;;;5034083;28;20045;-48
2022/10/30 12:21:45;;;;;;;5.78;4.35;;;21.40;66.20;;;;;;5033925;28;20049;-53
2022/10/30 12:24:36;;;;;;;7.80;4.75;;;21.50;66.10;;;;;;4996682;28;20401;-49
2022/10/30 12:27:10;;;;;;;7.40;3.85;;;21.60;65.90;;;;;;5014098;28;20049;-49
2022/10/30 12:29:52;;;;;;;10.13;5.35;;;21.70;65.90;;;;;;5020877;28;20046;-49
2022/10/30 12:32:55;;;;;;;8.35;3.92;;;21.80;65.90;;;;;;5014129;28;20045;-49
2022/10/30 12:35:36;;;;;;;8.43;4.40;;;21.80;65.50;;;;;;5017324;28;20053;-49
2022/10/30 12:38:09;;;;;;;8.60;4.65;;;21.90;65.50;;;;;;5025326;28;20069;-52
2022/10/30 12:40:43;;;;;;;9.50;4.47;;;22.00;65.50;;;;;;5033288;28;20057;-52
2022/10/30 12:43:26;;;;;;;9.77;4.80;;;22.00;65.60;;;;;;5009871;28;20152;-50
2022/10/30 12:46:19;;;;;;;9.75;5.15;;;22.10;64.80;;;;;;5013077;28;20047;-53
2022/10/30 12:48:55;;;;;;;11.90;5.00;;;22.20;64.90;;;;;;5025724;28;20034;-49
2022/10/30 12:51:34;;;;;;;10.48;4.80;;;22.30;65.00;;;;;;5017749;28;20491;-51
2022/10/30 12:54:28;;;;;;;8.43;5.25;;;22.30;65.10;;;;;;5018357;28;20121;-48
2022/10/30 12:57:14;;;;;;;6.43;4.88;;;22.40;64.70;;;;;;5019878;28;20095;-52
2022/10/30 12:59:58;;;;;;;7.47;4.40;;;22.50;64.50;;;;;;5032459;28;20533;-49
2022/10/30 13:02:30;;;;;;;5.00;4.10;;;22.60;64.00;;;;;;5017400;28;20529;-52
2022/10/30 13:05:04;;;;;;;11.18;5.07;;;22.60;64.50;;;;;;5011126;28;20157;-49
2022/10/30 13:08:09;;;;;;;9.75;4.85;;;22.70;64.20;;;;;;5031971;28;20047;-52
2022/10/30 13:10:46;;;;;;;6.88;3.92;;;22.80;64.20;;;;;;4971854;28;20090;-52
2022/10/30 13:13:31;;;;;;;8.68;4.32;;;22.90;64.00;;;;;;4961109;28;20053;-47
2022/10/30 13:16:01;;;;;;;8.20;5.07;;;23.00;63.40;;;;;;5000874;28;20089;-53
2022/10/30 13:18:32;;;;;;;6.25;4.35;;;23.10;63.60;;;;;;5021153;28;20052;-52
2022/10/30 13:21:20;;;;;;;9.43;4.30;;;23.10;63.80;;;;;;5009092;28;20689;-49
2022/10/30 13:23:47;;;;;;;8.73;4.60;;;23.20;63.00;;;;;;5023164;28;20064;-49
2022/10/30 13:26:45;;;;;;;13.02;4.47;;;23.30;63.00;;;;;;5022554;28;20510;-52
2022/10/30 13:29:36;;;;;;;7.03;3.97;;;23.40;62.80;;;;;;5012639;28;20045;-50